createdAt,value
2022-10-12T00:01:07.595Z,97913.41
2022-10-12T00:03:35.005Z,97916.03
2022-10-12T00:06:02.365Z,97922.19
2022-10-12T00:08:29.595Z,97914.00
2022-10-12T00:10:56.168Z,97912.34
2022-10-12T00:13:22.769Z,97922.47
2022-10-12T00:15:49.579Z,97912.28
2022-10-12T00:18:16.196Z,97915.50
2022-10-12T00:20:42.717Z,97921.00
2022-10-12T00:23:09.190Z,97914.09
2022-10-12T00:25:39.759Z,97917.44
2022-10-12T00:28:07.101Z,97919.56
2022-10-12T00:30:34.796Z,97913.50
2022-10-12T00:33:01.239Z,97921.84
2022-10-12T00:35:30.843Z,97913.97
2022-10-12T00:37:57.860Z,97908.38
2022-10-12T00:40:24.363Z,97911.16
2022-10-12T00:42:50.783Z,97908.28
2022-10-12T00:45:17.471Z,97911.72
2022-10-12T00:47:52.296Z,97909.47
2022-10-12T00:50:24.905Z,97904.00
2022-10-12T00:52:54.261Z,97909.97
2022-10-12T00:55:23.301Z,97910.34
2022-10-12T00:57:52.892Z,97913.56
2022-10-12T01:00:20.063Z,97910.38
2022-10-12T01:02:51.840Z,97913.69
2022-10-12T01:05:18.783Z,97910.81
2022-10-12T01:07:45.430Z,97913.69
2022-10-12T01:10:12.266Z,97906.72
2022-10-12T01:12:42.427Z,97909.84
2022-10-12T01:15:10.480Z,97905.63
2022-10-12T01:17:53.948Z,97903.75
2022-10-12T01:20:23.437Z,97901.13
2022-10-12T01:23:19.045Z,97908.50
2022-10-12T01:26:00.730Z,97903.63
2022-10-12T01:28:55.577Z,97901.28
2022-10-12T01:31:36.388Z,97900.25
2022-10-12T01:34:17.225Z,97897.63
2022-10-12T01:36:49.658Z,97901.25
2022-10-12T01:39:25.160Z,97893.50
2022-10-12T01:41:56.132Z,97891.22
2022-10-12T01:44:26.739Z,97893.34
2022-10-12T01:46:55.035Z,97893.59
2022-10-12T01:49:34.638Z,97892.66
2022-10-12T01:52:29.831Z,97895.38
2022-10-12T01:55:04.764Z,97896.25
2022-10-12T01:57:49.542Z,97889.31
2022-10-12T02:00:17.191Z,97884.53
2022-10-12T02:03:18.860Z,97890.63
2022-10-12T02:05:50.712Z,97890.97
2022-10-12T02:08:30.224Z,97887.28
2022-10-12T02:10:56.671Z,97883.94
2022-10-12T02:13:26.320Z,97885.22
2022-10-12T02:15:54.234Z,97886.19
2022-10-12T02:18:22.766Z,97884.50
2022-10-12T02:20:52.861Z,97885.59
2022-10-12T02:23:23.041Z,97890.88
2022-10-12T02:25:51.652Z,97897.13
2022-10-12T02:28:23.981Z,97890.25
2022-10-12T02:31:15.153Z,97886.66
2022-10-12T02:34:06.581Z,97890.16
2022-10-12T02:36:44.541Z,97899.22
2022-10-12T02:39:17.012Z,97893.78
2022-10-12T02:41:48.953Z,97891.78
2022-10-12T02:44:23.177Z,97896.91
2022-10-12T02:46:51.715Z,97883.56
2022-10-12T02:49:19.129Z,97890.25
2022-10-12T02:51:46.459Z,97883.13
2022-10-12T02:54:13.157Z,97882.44
2022-10-12T02:56:47.107Z,97889.78
2022-10-12T02:59:16.141Z,97885.00
2022-10-12T03:01:42.929Z,97882.97
2022-10-12T03:04:09.862Z,97887.34
2022-10-12T03:06:36.395Z,97885.44
2022-10-12T03:09:05.093Z,97885.22
2022-10-12T03:11:32.008Z,97885.84
2022-10-12T03:13:58.461Z,97885.84
2022-10-12T03:16:27.010Z,97895.91
2022-10-12T03:18:53.460Z,97889.00
2022-10-12T03:21:19.943Z,97890.97
2022-10-12T03:23:46.362Z,97900.97
2022-10-12T03:26:12.757Z,97895.53
2022-10-12T03:28:39.226Z,97890.41
2022-10-12T03:31:05.635Z,97886.44
2022-10-12T03:33:32.027Z,97881.81
2022-10-12T03:35:59.689Z,97892.09
2022-10-12T03:38:28.821Z,97888.75
2022-10-12T03:40:55.230Z,97893.84
2022-10-12T03:43:21.705Z,97896.59
2022-10-12T03:45:48.236Z,97896.47
2022-10-12T03:48:14.715Z,97898.34
2022-10-12T03:50:41.235Z,97904.31
2022-10-12T03:53:10.024Z,97901.94
2022-10-12T03:55:38.959Z,97897.31
2022-10-12T03:58:05.424Z,97901.19
2022-10-12T04:00:32.177Z,97898.19
2022-10-12T04:02:58.799Z,97897.97
2022-10-12T04:05:25.466Z,97893.69
2022-10-12T04:07:51.946Z,97891.84
2022-10-12T04:10:18.404Z,97899.69
2022-10-12T04:12:45.624Z,97892.56
2022-10-12T04:15:12.231Z,97888.28
2022-10-12T04:17:39.181Z,97896.75
2022-10-12T04:20:06.832Z,97900.63
2022-10-12T04:22:33.456Z,97899.47
2022-10-12T04:24:59.821Z,97898.00
2022-10-12T04:27:26.236Z,97899.81
2022-10-12T04:29:52.626Z,97897.84
2022-10-12T04:32:19.106Z,97900.38
2022-10-12T04:34:45.561Z,97900.56
2022-10-12T04:37:11.953Z,97895.53
2022-10-12T04:39:38.387Z,97894.06
2022-10-12T04:42:06.831Z,97897.75
2022-10-12T04:44:33.566Z,97901.19
2022-10-12T04:47:03.015Z,97903.19
2022-10-12T04:49:29.485Z,97901.94
2022-10-12T04:51:55.934Z,97900.25
2022-10-12T04:54:22.356Z,97904.69
2022-10-12T04:56:48.783Z,97906.88
2022-10-12T04:59:15.447Z,97909.50
2022-10-12T05:01:42.048Z,97908.97
2022-10-12T05:04:08.749Z,97904.34
2022-10-12T05:06:35.169Z,97908.19
2022-10-12T05:09:01.640Z,97911.63
2022-10-12T05:11:28.021Z,97911.97
2022-10-12T05:13:54.461Z,97915.41
2022-10-12T05:16:20.969Z,97909.44
2022-10-12T05:18:47.833Z,97913.84
2022-10-12T05:21:14.316Z,97918.47
2022-10-12T05:23:40.850Z,97921.19
2022-10-12T05:26:07.374Z,97919.97
2022-10-12T05:28:38.309Z,97921.41
2022-10-12T05:31:07.166Z,97922.78
2022-10-12T05:33:33.556Z,97931.84
2022-10-12T05:35:59.989Z,97929.31
2022-10-12T05:38:26.378Z,97931.44
2022-10-12T05:40:57.710Z,97937.13
2022-10-12T05:43:26.593Z,97937.94
2022-10-12T05:45:53.042Z,97928.78
2022-10-12T05:48:19.493Z,97929.56
2022-10-12T05:50:45.924Z,97933.63
2022-10-12T05:53:12.315Z,97933.16
2022-10-12T05:55:51.896Z,97938.22
2022-10-12T05:58:18.305Z,97934.06
2022-10-12T06:00:47.118Z,97939.06
2022-10-12T06:03:14.802Z,97939.31
2022-10-12T06:05:44.021Z,97938.56
2022-10-12T06:08:11.041Z,97945.38
2022-10-12T06:13:10.974Z,97945.03
2022-10-12T06:15:37.391Z,97942.06
2022-10-12T06:18:03.923Z,97942.91
2022-10-12T06:20:30.337Z,97942.69
2022-10-12T06:22:56.778Z,97948.69
2022-10-12T06:25:23.198Z,97948.22
2022-10-12T06:27:49.630Z,97942.06
2022-10-12T06:30:16.220Z,97951.03
2022-10-12T06:32:42.639Z,97949.09
2022-10-12T06:35:09.875Z,97950.31
2022-10-12T06:37:51.520Z,97956.28
2022-10-12T06:40:20.787Z,97953.88
2022-10-12T06:42:56.194Z,97954.63
2022-10-12T06:45:27.326Z,97963.59
2022-10-12T06:47:56.515Z,97973.47
2022-10-12T06:50:23.133Z,97976.72
2022-10-12T06:52:49.597Z,97958.50
2022-10-12T06:55:16.248Z,97964.31
2022-10-12T06:57:42.723Z,97969.25
2022-10-12T07:00:09.890Z,97977.47
2022-10-12T07:02:36.915Z,97983.41
2022-10-12T07:05:04.243Z,97973.44
2022-10-12T07:07:35.121Z,97985.25
2022-10-12T07:10:01.893Z,97978.44
2022-10-12T07:12:30.677Z,97976.88
2022-10-12T07:14:58.366Z,97978.56
2022-10-12T07:17:24.792Z,97986.19
2022-10-12T07:19:51.232Z,97985.13
2022-10-12T07:22:17.651Z,97978.09
2022-10-12T07:24:44.077Z,97982.16
2022-10-12T07:27:11.739Z,97982.13
2022-10-12T07:29:38.999Z,97986.41
2022-10-12T07:32:06.726Z,97985.06
2022-10-12T07:34:33.688Z,97992.22
2022-10-12T07:37:00.203Z,97992.69
2022-10-12T07:39:27.238Z,97989.88
2022-10-12T07:41:54.372Z,97993.28
2022-10-12T07:44:24.429Z,97988.91
2022-10-12T07:46:51.246Z,97987.31
2022-10-12T07:49:18.258Z,97991.94
2022-10-12T07:51:46.420Z,97989.16
2022-10-12T07:54:19.026Z,97994.91
2022-10-12T07:56:47.001Z,97999.38
2022-10-12T07:59:13.430Z,98001.16
2022-10-12T08:01:39.960Z,97997.81
2022-10-12T08:04:06.456Z,98000.97
2022-10-12T08:06:34.252Z,98012.31
2022-10-12T08:09:01.785Z,98005.84
2022-10-12T08:11:28.917Z,98007.75
2022-10-12T08:13:57.941Z,98006.63
2022-10-12T08:16:24.357Z,98009.34
2022-10-12T08:18:51.100Z,98008.22
2022-10-12T08:21:18.309Z,98003.84
2022-10-12T08:23:45.574Z,98006.25
2022-10-12T08:26:17.926Z,98006.91
2022-10-12T08:28:47.397Z,98000.69
2022-10-12T08:31:17.721Z,98012.09
2022-10-12T08:33:44.589Z,98001.06
2022-10-12T08:36:12.455Z,98009.19
2022-10-12T08:38:39.477Z,98010.28
2022-10-12T08:41:37.000Z,98017.38
2022-10-12T08:44:09.405Z,98007.22
2022-10-12T08:46:36.078Z,98002.22
2022-10-12T08:49:14.734Z,98007.66
2022-10-12T08:51:49.406Z,97998.34
2022-10-12T08:54:20.581Z,98007.78
2022-10-12T08:56:47.108Z,98013.66
2022-10-12T08:59:16.064Z,98010.41
2022-10-12T09:01:51.424Z,98013.19
2022-10-12T09:04:55.584Z,98015.84
2022-10-12T09:07:27.384Z,98011.97
2022-10-12T09:10:31.784Z,98007.31
2022-10-12T09:13:16.928Z,98009.50
2022-10-12T09:15:58.995Z,98012.47
2022-10-12T09:18:48.828Z,98003.44
2022-10-12T09:21:20.816Z,97999.94
2022-10-12T09:23:48.310Z,98012.28
2022-10-12T09:26:20.698Z,98013.69
2022-10-12T09:28:57.909Z,98014.63
2022-10-12T09:31:42.178Z,98012.41
2022-10-12T09:34:10.158Z,98005.03
2022-10-12T09:36:39.628Z,98002.69
2022-10-12T09:39:12.668Z,98008.56
2022-10-12T09:41:45.561Z,98008.91
2022-10-12T09:44:36.946Z,98007.53
2022-10-12T09:47:23.458Z,98009.44
2022-10-12T09:49:52.123Z,98012.22
2022-10-12T09:52:46.110Z,98005.56
2022-10-12T09:55:15.937Z,98013.88
2022-10-12T09:57:53.808Z,98011.94
2022-10-12T10:00:29.280Z,98008.31
2022-10-12T10:02:56.470Z,97999.53
2022-10-12T10:05:31.895Z,98011.31
2022-10-12T10:08:19.361Z,98000.50
2022-10-12T10:10:51.165Z,97994.09
2022-10-12T10:13:18.012Z,97997.72
2022-10-12T10:15:49.690Z,98002.06
2022-10-12T10:18:33.529Z,97998.84
2022-10-12T10:21:01.979Z,98001.38
2022-10-12T10:23:36.847Z,98006.63
2022-10-12T10:26:08.083Z,98008.03
2022-10-12T10:28:40.311Z,98007.88
2022-10-12T10:31:13.827Z,98015.63
2022-10-12T10:33:40.703Z,98004.13
2022-10-12T10:36:18.630Z,98003.75
2022-10-12T10:38:54.684Z,98004.03
2022-10-12T10:41:27.520Z,98002.22
2022-10-12T10:43:54.809Z,98001.28
2022-10-12T10:46:28.140Z,98006.13
2022-10-12T10:49:06.181Z,98007.22
2022-10-12T10:51:51.808Z,98007.63
2022-10-12T10:54:26.766Z,98000.59
2022-10-12T10:57:01.941Z,98004.34
2022-10-12T10:59:54.301Z,98004.03
2022-10-12T11:02:30.585Z,98000.59
2022-10-12T11:05:07.925Z,97993.81
2022-10-12T11:08:17.195Z,97985.22
2022-10-12T11:10:57.973Z,97986.72
2022-10-12T11:13:46.533Z,97980.75
2022-10-12T11:16:39.950Z,97984.38
2022-10-12T11:19:30.285Z,97977.59
2022-10-12T11:22:04.731Z,97975.06
2022-10-12T11:24:43.220Z,97984.50
2022-10-12T11:27:20.174Z,97978.00
2022-10-12T11:29:58.132Z,97974.53
2022-10-12T11:32:37.552Z,97967.28
2022-10-12T11:35:10.250Z,97969.38
2022-10-12T11:37:47.598Z,97976.22
2022-10-12T11:40:47.654Z,97970.81
2022-10-12T11:43:20.285Z,97971.75
2022-10-12T11:45:52.073Z,97973.03
2022-10-12T11:48:27.298Z,97969.00
2022-10-12T11:51:03.917Z,97966.63
2022-10-12T11:53:42.886Z,97967.59
2022-10-12T11:56:39.834Z,97960.00
2022-10-12T11:59:19.256Z,97958.88
2022-10-12T12:01:58.085Z,97957.38
2022-10-12T12:04:43.970Z,97952.78
2022-10-12T12:07:22.906Z,97948.34
2022-10-12T12:09:51.007Z,97959.59
2022-10-12T12:12:26.943Z,97955.41
2022-10-12T12:14:53.369Z,97954.44
2022-10-12T12:17:19.777Z,97953.75
2022-10-12T12:19:55.329Z,97954.72
2022-10-12T12:22:28.794Z,97952.91
2022-10-12T12:25:04.574Z,97955.66
2022-10-12T12:27:33.914Z,97956.22
2022-10-12T12:30:03.371Z,97951.78
2022-10-12T12:33:22.605Z,97951.63
2022-10-12T12:36:00.628Z,97946.75
2022-10-12T12:38:36.501Z,97942.06
2022-10-12T12:41:10.549Z,97943.16
2022-10-12T12:43:57.307Z,97939.00
2022-10-12T12:46:45.177Z,97941.22
2022-10-12T12:49:44.492Z,97944.25
2022-10-12T12:52:14.370Z,97944.16
2022-10-12T12:55:16.217Z,97942.88
2022-10-12T12:58:06.827Z,97940.09
2022-10-12T13:01:14.804Z,97947.06
2022-10-12T13:04:02.875Z,97940.78
2022-10-12T13:07:06.266Z,97944.56
2022-10-12T13:09:53.263Z,97944.97
2022-10-12T13:12:32.859Z,97935.66
2022-10-12T13:15:16.177Z,97938.72
2022-10-12T13:17:57.951Z,97936.22
2022-10-12T13:20:37.506Z,97927.34
2022-10-12T13:23:09.219Z,97926.91
2022-10-12T13:25:46.074Z,97927.59
2022-10-12T13:28:18.510Z,97937.06
2022-10-12T13:30:54.065Z,97936.06
2022-10-12T13:33:32.742Z,97928.16
2022-10-12T13:36:07.304Z,97927.47
2022-10-12T13:38:38.526Z,97923.72
2022-10-12T13:41:13.258Z,97925.81
2022-10-12T13:44:03.080Z,97928.88
2022-10-12T13:47:04.392Z,97923.31
2022-10-12T13:49:41.505Z,97935.38
2022-10-12T13:52:13.786Z,97939.56
2022-10-12T13:54:48.805Z,97935.53
2022-10-12T13:57:41.642Z,97933.72
2022-10-12T14:00:14.119Z,97930.81
2022-10-12T14:02:41.106Z,97926.78
2022-10-12T14:05:20.933Z,97925.13
2022-10-12T14:07:51.239Z,97921.66
2022-10-12T14:10:26.721Z,97917.63
2022-10-12T14:12:54.490Z,97908.19
2022-10-12T14:15:25.861Z,97911.25
2022-10-12T14:17:52.487Z,97906.66
2022-10-12T14:20:39.860Z,97904.84
2022-10-12T14:23:21.973Z,97904.03
2022-10-12T14:25:57.031Z,97897.53
2022-10-12T14:28:31.135Z,97904.31
2022-10-12T14:30:57.673Z,97903.47
2022-10-12T14:33:26.122Z,97908.75
2022-10-12T14:36:12.127Z,97902.75
2022-10-12T14:38:38.579Z,97904.19
2022-10-12T14:41:42.558Z,97903.19
2022-10-12T14:44:10.815Z,97909.59
2022-10-12T14:47:07.418Z,97909.84
2022-10-12T14:49:44.133Z,97906.38
2022-10-12T14:52:25.832Z,97897.66
2022-10-12T14:57:30.066Z,97900.00
2022-10-12T14:59:57.565Z,97891.00
2022-10-12T15:02:33.264Z,97900.41
2022-10-12T15:04:59.890Z,97898.34
2022-10-12T15:07:31.211Z,97898.91
2022-10-12T15:10:00.443Z,97895.56
2022-10-12T15:12:29.282Z,97891.69
2022-10-12T15:14:57.156Z,97898.91
2022-10-12T15:17:23.715Z,97894.72
2022-10-12T15:19:51.677Z,97896.53
2022-10-12T15:22:23.531Z,97895.56
2022-10-12T15:24:54.052Z,97892.50
2022-10-12T15:27:22.906Z,97897.22
2022-10-12T15:29:52.152Z,97900.81
2022-10-12T15:32:19.271Z,97894.03
2022-10-12T15:34:45.839Z,97893.19
2022-10-12T15:37:12.315Z,97898.28
2022-10-12T15:39:39.054Z,97893.97
2022-10-12T15:42:05.668Z,97889.28
2022-10-12T15:44:38.963Z,97892.84
2022-10-12T15:47:05.446Z,97890.22
2022-10-12T15:49:32.034Z,97891.16
2022-10-12T15:51:58.523Z,97894.78
2022-10-12T15:54:25.035Z,97899.22
2022-10-12T15:56:51.534Z,97895.72
2022-10-12T15:59:18.027Z,97899.22
2022-10-12T16:01:45.002Z,97897.00
2022-10-12T16:04:15.244Z,97900.16
2022-10-12T16:06:43.931Z,97891.75
2022-10-12T16:09:10.436Z,97895.06
2022-10-12T16:11:37.205Z,97891.16
2022-10-12T16:14:03.685Z,97893.91
2022-10-12T16:16:31.918Z,97893.09
2022-10-12T16:19:00.797Z,97883.06
2022-10-12T16:21:29.697Z,97886.41
2022-10-12T16:23:56.230Z,97878.81
2022-10-12T16:26:22.707Z,97881.97
2022-10-12T16:28:49.311Z,97878.72
2022-10-12T16:31:17.802Z,97878.16
2022-10-12T16:33:44.830Z,97880.25
2022-10-12T16:36:14.398Z,97880.94
2022-10-12T16:38:41.758Z,97886.72
2022-10-12T16:41:13.545Z,97880.88
2022-10-12T16:43:40.604Z,97882.66
2022-10-12T16:46:08.248Z,97878.75
2022-10-12T16:48:35.170Z,97873.03
2022-10-12T16:51:01.830Z,97872.97
2022-10-12T16:53:30.840Z,97882.69
2022-10-12T16:55:57.330Z,97883.19
2022-10-12T16:58:23.859Z,97880.94
2022-10-12T17:00:50.391Z,97880.34
2022-10-12T17:03:16.905Z,97876.88
2022-10-12T17:05:43.517Z,97880.88
2022-10-12T17:08:15.034Z,97879.78
2022-10-12T17:10:45.578Z,97880.56
2022-10-12T17:13:13.531Z,97889.16
2022-10-12T17:15:41.469Z,97885.09
2022-10-12T17:18:08.669Z,97879.13
2022-10-12T17:20:36.170Z,97883.78
2022-10-12T17:23:03.026Z,97880.44
2022-10-12T17:25:29.617Z,97886.50
2022-10-12T17:27:56.132Z,97885.19
2022-10-12T17:30:22.840Z,97889.50
2022-10-12T17:32:51.483Z,97886.66
2022-10-12T17:35:18.122Z,97885.59
2022-10-12T17:37:44.622Z,97887.38
2022-10-12T17:40:11.486Z,97886.59
2022-10-12T17:42:38.021Z,97886.53
2022-10-12T17:45:04.953Z,97880.59
2022-10-12T17:47:31.439Z,97880.16
2022-10-12T17:50:00.240Z,97887.84
2022-10-12T17:52:26.877Z,97883.41
2022-10-12T17:54:53.403Z,97887.13
2022-10-12T17:57:20.369Z,97887.22
2022-10-12T17:59:47.115Z,97886.25
2022-10-12T18:02:13.574Z,97888.41
2022-10-12T18:04:40.078Z,97890.31
2022-10-12T18:07:06.582Z,97890.63
2022-10-12T18:09:33.122Z,97890.75
2022-10-12T18:11:59.627Z,97897.44
2022-10-12T18:14:26.129Z,97891.81
2022-10-12T18:16:54.294Z,97897.28
2022-10-12T18:19:20.832Z,97892.31
2022-10-12T18:21:49.634Z,97895.53
2022-10-12T18:24:18.720Z,97892.88
2022-10-12T18:26:47.074Z,97894.91
2022-10-12T18:29:14.229Z,97900.06
2022-10-12T18:31:40.737Z,97903.56
2022-10-12T18:34:07.273Z,97902.97
2022-10-12T18:36:34.308Z,97906.63
2022-10-12T18:39:02.790Z,97903.69
2022-10-12T18:41:32.018Z,97897.66
2022-10-12T18:44:00.386Z,97904.13
2022-10-12T18:46:28.656Z,97898.38
2022-10-12T18:48:55.997Z,97898.25
2022-10-12T18:51:25.078Z,97900.28
2022-10-12T18:53:51.814Z,97896.66
2022-10-12T18:56:19.453Z,97896.00
2022-10-12T18:58:46.331Z,97903.59
2022-10-12T19:01:15.963Z,97897.88
2022-10-12T19:03:42.571Z,97902.41
2022-10-12T19:06:15.107Z,97893.59
2022-10-12T19:08:43.504Z,97911.72
2022-10-12T19:11:11.669Z,97906.22
2022-10-12T19:13:41.492Z,97907.28
2022-10-12T19:16:12.136Z,97912.88
2022-10-12T19:18:40.067Z,97909.09
2022-10-12T19:21:14.785Z,97908.84
2022-10-12T19:23:44.637Z,97907.13
2022-10-12T19:26:27.096Z,97902.25
2022-10-12T19:28:55.703Z,97900.97
2022-10-12T19:31:37.484Z,97896.44
2022-10-12T19:34:06.644Z,97902.41
2022-10-12T19:36:34.061Z,97892.41
2022-10-12T19:39:03.859Z,97895.72
2022-10-12T19:41:31.200Z,97892.47
2022-10-12T19:43:58.691Z,97894.97
2022-10-12T19:46:25.262Z,97889.94
2022-10-12T19:48:53.998Z,97891.19
2022-10-12T19:51:22.109Z,97894.38
2022-10-12T19:53:53.155Z,97888.78
2022-10-12T19:56:22.948Z,97887.59
2022-10-12T19:58:51.588Z,97890.56
2022-10-12T20:01:21.391Z,97887.72
2022-10-12T20:03:50.871Z,97887.84
2022-10-12T20:06:23.086Z,97885.09
2022-10-12T20:08:51.982Z,97898.31
2022-10-12T20:11:23.785Z,97896.16
2022-10-12T20:13:53.690Z,97895.97
2022-10-12T20:16:20.731Z,97904.56
2022-10-12T20:18:48.006Z,97913.72
2022-10-12T20:21:19.225Z,97911.94
2022-10-12T20:23:46.647Z,97914.84
2022-10-12T20:26:25.241Z,97913.03
2022-10-12T20:28:52.854Z,97912.34
2022-10-12T20:31:23.128Z,97912.22
2022-10-12T20:33:53.807Z,97911.72
2022-10-12T20:36:27.304Z,97913.25
2022-10-12T20:38:54.090Z,97911.84
2022-10-12T20:41:23.698Z,97920.19
2022-10-12T20:43:57.168Z,97915.31
2022-10-12T20:46:24.170Z,97915.38
2022-10-12T20:48:54.594Z,97912.28
2022-10-12T20:51:27.608Z,97910.44
2022-10-12T20:53:55.204Z,97910.31
2022-10-12T20:56:21.705Z,97902.56
2022-10-12T20:58:48.193Z,97902.66
2022-10-12T21:01:16.721Z,97909.97
2022-10-12T21:03:45.566Z,97910.22
2022-10-12T21:06:16.252Z,97912.94
2022-10-12T21:08:43.039Z,97905.91
2022-10-12T21:11:10.707Z,97908.28
2022-10-12T21:13:40.948Z,97900.88
2022-10-12T21:16:11.934Z,97905.91
2022-10-12T21:18:40.207Z,97904.72
2022-10-12T21:21:13.241Z,97904.47
2022-10-12T21:23:43.466Z,97904.00
2022-10-12T21:26:14.296Z,97900.44
2022-10-12T21:28:41.150Z,97907.94
2022-10-12T21:31:08.376Z,97901.78
2022-10-12T21:33:38.855Z,97896.53
2022-10-12T21:36:11.340Z,97891.94
2022-10-12T21:38:38.650Z,97895.94
2022-10-12T21:41:06.224Z,97898.56
2022-10-12T21:43:32.811Z,97892.13
2022-10-12T21:46:04.360Z,97896.19
2022-10-12T21:48:32.235Z,97895.69
2022-10-12T21:51:01.473Z,97892.59
2022-10-12T21:53:28.392Z,97896.41
2022-10-12T21:55:54.901Z,97902.34
2022-10-12T21:58:21.403Z,97899.41
2022-10-12T22:00:47.892Z,97899.88
2022-10-12T22:03:14.432Z,97902.13
2022-10-12T22:05:44.529Z,97904.66
2022-10-12T22:08:13.710Z,97901.88
2022-10-12T22:10:40.148Z,97911.06
2022-10-12T22:13:07.549Z,97901.16
2022-10-12T22:15:34.779Z,97899.06
2022-10-12T22:18:01.279Z,97899.97
2022-10-12T22:20:27.697Z,97891.56
2022-10-12T22:22:54.119Z,97891.75
2022-10-12T22:25:20.518Z,97902.13
2022-10-12T22:27:46.997Z,97898.56
2022-10-12T22:30:13.669Z,97899.41
2022-10-12T22:32:40.111Z,97895.94
2022-10-12T22:35:07.043Z,97894.16
2022-10-12T22:37:35.745Z,97886.31
2022-10-12T22:40:02.806Z,97884.00
2022-10-12T22:42:29.283Z,97883.44
2022-10-12T22:44:56.633Z,97878.31
2022-10-12T22:47:25.595Z,97884.88
2022-10-12T22:49:52.177Z,97879.16
2022-10-12T22:52:18.952Z,97885.00
2022-10-12T22:54:45.586Z,97886.88
2022-10-12T22:57:12.461Z,97883.44
2022-10-12T22:59:38.929Z,97881.66
2022-10-12T23:02:05.331Z,97885.25
2022-10-12T23:04:31.848Z,97881.66
2022-10-12T23:06:58.305Z,97879.38
2022-10-12T23:09:27.189Z,97877.13
2022-10-12T23:11:53.591Z,97874.63
2022-10-12T23:14:19.976Z,97877.75
2022-10-12T23:16:46.385Z,97875.47
2022-10-12T23:19:12.808Z,97871.88
2022-10-12T23:21:39.266Z,97874.25
2022-10-12T23:24:06.271Z,97866.53
2022-10-12T23:26:33.861Z,97872.00
2022-10-12T23:29:03.430Z,97882.63
2022-10-12T23:31:31.046Z,97883.72
2022-10-12T23:34:03.835Z,97884.53
2022-10-12T23:36:30.536Z,97880.94
2022-10-12T23:38:59.927Z,97875.34
2022-10-12T23:41:26.394Z,97872.84
2022-10-12T23:43:52.897Z,97883.19
2022-10-12T23:46:19.443Z,97880.72
2022-10-12T23:48:45.888Z,97874.25
2022-10-12T23:51:14.839Z,97871.88
2022-10-12T23:53:43.581Z,97871.41
2022-10-12T23:56:11.130Z,97873.56
2022-10-12T23:58:37.671Z,97872.25
